Time;durP1;ratioP1;P1;durP2;ratioP2;P2;SDS_P1;SDS_P2;PMS_P1;PMS_P2;Temp;Humidity;BMP_temperature;BMP_pressure;BME280_temperature;BME280_humidity;BME280_pressure;Samples;Min_cycle;Max_cycle;Signal;HPM_P1;HPM_P2
2023/10/30 00:01:25;;;;;;;1.00;0.85;;;;;;;;;;5035917;28;20224;-87
2023/10/30 00:03:54;;;;;;;1.65;0.93;;;;;;;;;;5035987;28;20249;-86
2023/10/30 00:06:22;;;;;;;2.25;1.23;;;;;;;;;;5027197;28;20638;-87
2023/10/30 00:08:49;;;;;;;1.95;1.02;;;;;;;;;;5033933;28;20285;-86
2023/10/30 00:11:17;;;;;;;2.67;1.02;;;;;;;;;;5034341;28;20703;-86
2023/10/30 00:13:44;;;;;;;1.65;1.17;;;;;;;;;;5034160;28;20301;-85
2023/10/30 00:16:12;;;;;;;1.42;1.00;;;;;;;;;;5034169;28;20289;-87
2023/10/30 00:18:41;;;;;;;0.70;0.70;;;;;;;;;;5033935;28;20633;-86
2023/10/30 00:21:10;;;;;;;1.00;0.90;;;;;;;;;;5029999;28;20690;-86
2023/10/30 00:23:37;;;;;;;0.73;0.73;;;;;;;;;;5033610;28;20222;-85
2023/10/30 00:26:05;;;;;;;0.73;0.73;;;;;;;;;;5033984;28;20226;-85
2023/10/30 00:28:34;;;;;;;1.15;0.80;;;;;;;;;;5033792;28;20277;-86
2023/10/30 00:31:02;;;;;;;2.38;0.93;;;;;;;;;;5033806;28;20582;-86
2023/10/30 00:33:30;;;;;;;1.23;0.70;;;;;;;;;;5033463;28;20297;-87
2023/10/30 00:35:58;;;;;;;1.15;1.10;;;;;;;;;;5026267;28;20195;-86
2023/10/30 00:38:26;;;;;;;1.60;1.42;;;;;;;;;;5033781;28;20287;-86
2023/10/30 00:40:55;;;;;;;1.38;1.00;;;;;;;;;;5032702;28;20615;-86
2023/10/30 00:43:22;;;;;;;1.60;1.25;;;;;;;;;;5033203;28;20226;-87
2023/10/30 00:45:50;;;;;;;0.63;0.63;;;;;;;;;;5033036;28;20652;-86
2023/10/30 00:48:17;;;;;;;1.70;0.93;;;;;;;;;;5032478;28;20293;-86
2023/10/30 00:50:45;;;;;;;1.63;0.73;;;;;;;;;;5032364;28;20204;-86
2023/10/30 00:53:12;;;;;;;1.35;1.00;;;;;;;;;;5035227;28;20596;-86
2023/10/30 00:55:41;;;;;;;0.80;0.80;;;;;;;;;;5044060;28;20202;-87
2023/10/30 00:58:08;;;;;;;1.10;1.00;;;;;;;;;;5034030;28;20195;-86
2023/10/30 01:00:36;;;;;;;1.67;1.00;;;;;;;;;;5024548;28;20209;-87
2023/10/30 01:03:03;;;;;;;0.70;0.70;;;;;;;;;;5023507;28;20683;-87
2023/10/30 01:05:31;;;;;;;2.05;1.00;;;;;;;;;;5024262;28;20278;-88
2023/10/30 01:07:58;;;;;;;4.35;1.08;;;;;;;;;;5031624;28;20644;-88
2023/10/30 01:10:26;;;;;;;1.38;1.00;;;;;;;;;;5027448;28;20652;-88
2023/10/30 01:12:55;;;;;;;1.95;0.90;;;;;;;;;;5031706;28;20194;-87
2023/10/30 01:15:23;;;;;;;0.95;0.77;;;;;;;;;;5031747;28;20198;-87
2023/10/30 01:17:51;;;;;;;0.60;0.60;;;;;;;;;;5031499;28;20199;-87
2023/10/30 01:20:18;;;;;;;1.55;1.00;;;;;;;;;;5031331;28;20256;-87
2023/10/30 01:22:46;;;;;;;0.90;0.80;;;;;;;;;;5030513;28;20226;-87
2023/10/30 01:25:13;;;;;;;0.93;0.85;;;;;;;;;;5031710;28;20202;-86
2023/10/30 01:27:41;;;;;;;1.38;0.68;;;;;;;;;;5031574;28;20644;-87
2023/10/30 01:30:12;;;;;;;1.38;0.90;;;;;;;;;;5031391;28;20652;-86
2023/10/30 01:32:39;;;;;;;0.60;0.60;;;;;;;;;;5025662;28;20190;-85
2023/10/30 01:35:08;;;;;;;2.60;0.98;;;;;;;;;;5023999;28;20306;-87
2023/10/30 01:37:35;;;;;;;2.08;1.13;;;;;;;;;;5024537;28;20680;-86
2023/10/30 01:40:03;;;;;;;1.52;0.85;;;;;;;;;;5022753;28;20194;-86
2023/10/30 01:42:30;;;;;;;1.13;0.80;;;;;;;;;;5031153;28;20194;-87
2023/10/30 01:45:00;;;;;;;1.40;1.30;;;;;;;;;;5031297;28;20238;-86
2023/10/30 01:47:29;;;;;;;0.85;0.85;;;;;;;;;;5031353;28;20203;-86
2023/10/30 01:49:57;;;;;;;0.90;0.90;;;;;;;;;;5031377;28;20244;-86
2023/10/30 01:52:26;;;;;;;4.78;1.42;;;;;;;;;;5031271;28;20205;-87
2023/10/30 01:54:54;;;;;;;2.90;1.20;;;;;;;;;;5031016;28;20226;-86
2023/10/30 01:57:23;;;;;;;3.10;1.15;;;;;;;;;;5031064;28;20241;-86
2023/10/30 01:59:52;;;;;;;1.98;1.08;;;;;;;;;;5031022;28;20285;-86
2023/10/30 02:02:20;;;;;;;3.40;1.08;;;;;;;;;;5030900;28;20203;-87
2023/10/30 02:04:49;;;;;;;3.10;1.00;;;;;;;;;;5029304;28;20277;-86
2023/10/30 02:07:17;;;;;;;1.35;1.25;;;;;;;;;;5027022;28;20206;-86
2023/10/30 02:09:45;;;;;;;0.88;0.88;;;;;;;;;;5031231;28;20225;-86
2023/10/30 02:12:12;;;;;;;1.48;1.08;;;;;;;;;;5031155;28;20629;-85
2023/10/30 02:14:40;;;;;;;2.38;1.00;;;;;;;;;;5031077;28;20269;-86
2023/10/30 02:17:07;;;;;;;3.13;2.03;;;;;;;;;;5031433;28;20209;-86
2023/10/30 02:19:35;;;;;;;2.38;1.00;;;;;;;;;;5027602;28;20290;-87
2023/10/30 02:22:04;;;;;;;1.55;1.10;;;;;;;;;;5026591;28;20584;-86
2023/10/30 02:24:31;;;;;;;1.92;1.00;;;;;;;;;;5030877;28;20230;-86
2023/10/30 02:27:01;;;;;;;2.65;1.08;;;;;;;;;;5031040;28;20252;-85
2023/10/30 02:29:28;;;;;;;1.60;1.00;;;;;;;;;;5030937;28;20672;-86
2023/10/30 02:31:56;;;;;;;1.33;1.00;;;;;;;;;;5030614;28;20236;-86
2023/10/30 02:34:23;;;;;;;1.30;0.85;;;;;;;;;;5031993;28;20226;-85
2023/10/30 02:36:52;;;;;;;3.20;1.33;;;;;;;;;;5026502;28;20578;-85
2023/10/30 02:39:20;;;;;;;3.72;1.02;;;;;;;;;;5034581;28;20675;-86
2023/10/30 02:41:47;;;;;;;1.55;0.88;;;;;;;;;;5033961;28;20664;-86
2023/10/30 02:44:16;;;;;;;1.27;1.17;;;;;;;;;;5033856;28;20687;-86
2023/10/30 02:46:44;;;;;;;1.40;0.88;;;;;;;;;;5034298;28;20573;-86
2023/10/30 02:49:11;;;;;;;2.38;1.20;;;;;;;;;;5034387;28;20640;-86
2023/10/30 02:51:39;;;;;;;0.98;0.98;;;;;;;;;;5033651;28;20728;-86
2023/10/30 02:54:07;;;;;;;2.13;1.10;;;;;;;;;;5034177;28;20753;-85
2023/10/30 02:56:34;;;;;;;1.42;1.17;;;;;;;;;;5029099;28;20219;-87
2023/10/30 02:59:02;;;;;;;1.15;1.02;;;;;;;;;;5024950;28;20644;-86
2023/10/30 03:01:31;;;;;;;1.00;0.90;;;;;;;;;;5033194;28;20206;-85
2023/10/30 03:03:58;;;;;;;1.25;1.00;;;;;;;;;;5034097;28;20755;-86
2023/10/30 03:06:26;;;;;;;1.67;0.90;;;;;;;;;;5025140;28;20727;-85
2023/10/30 03:08:54;;;;;;;1.65;0.95;;;;;;;;;;5033518;28;20657;-86
2023/10/30 03:11:22;;;;;;;1.63;1.13;;;;;;;;;;5034044;28;20288;-86
2023/10/30 03:13:50;;;;;;;2.80;1.48;;;;;;;;;;5033785;28;20210;-85
2023/10/30 03:16:17;;;;;;;1.60;1.10;;;;;;;;;;5034012;28;20203;-86
2023/10/30 03:18:46;;;;;;;2.15;1.23;;;;;;;;;;5033864;28;20494;-85
2023/10/30 03:21:14;;;;;;;3.28;1.30;;;;;;;;;;5033218;28;20706;-85
2023/10/30 03:23:41;;;;;;;1.95;1.00;;;;;;;;;;5033023;28;20343;-85
2023/10/30 03:26:09;;;;;;;3.00;1.10;;;;;;;;;;5033336;28;20203;-85
2023/10/30 03:28:36;;;;;;;3.58;1.20;;;;;;;;;;5033759;28;20205;-85
2023/10/30 03:31:07;;;;;;;3.08;1.52;;;;;;;;;;5033335;28;20209;-86
2023/10/30 03:33:35;;;;;;;4.05;1.45;;;;;;;;;;5033352;28;20219;-86
2023/10/30 03:36:04;;;;;;;2.47;1.33;;;;;;;;;;5015566;28;20194;-86
2023/10/30 03:38:32;;;;;;;2.10;1.25;;;;;;;;;;5033373;28;20208;-85
2023/10/30 03:41:00;;;;;;;1.30;1.00;;;;;;;;;;5032998;28;20209;-86
2023/10/30 03:43:28;;;;;;;1.70;1.33;;;;;;;;;;5033242;28;20264;-85
2023/10/30 03:45:55;;;;;;;2.53;1.20;;;;;;;;;;5032476;28;20272;-85
2023/10/30 03:48:23;;;;;;;1.25;1.10;;;;;;;;;;5032929;28;20234;-86
2023/10/30 03:50:51;;;;;;;3.88;1.27;;;;;;;;;;5033475;28;20214;-86
2023/10/30 03:53:20;;;;;;;1.70;1.17;;;;;;;;;;5033305;28;20226;-86
2023/10/30 03:55:47;;;;;;;1.80;1.40;;;;;;;;;;5033268;28;20201;-86
2023/10/30 03:58:15;;;;;;;1.35;1.00;;;;;;;;;;5032924;28;20653;-86
2023/10/30 04:00:42;;;;;;;3.13;1.20;;;;;;;;;;5029001;28;20627;-86
2023/10/30 04:03:11;;;;;;;3.35;1.30;;;;;;;;;;5033177;28;20317;-87
2023/10/30 04:05:39;;;;;;;1.85;1.35;;;;;;;;;;5024478;28;20222;-85
2023/10/30 04:08:06;;;;;;;1.67;1.50;;;;;;;;;;5033066;28;20210;-86
2023/10/30 04:10:35;;;;;;;2.28;1.25;;;;;;;;;;5033509;28;20205;-86
2023/10/30 04:13:03;;;;;;;1.42;1.27;;;;;;;;;;5023597;28;20198;-86
2023/10/30 04:15:31;;;;;;;2.05;1.20;;;;;;;;;;5032532;28;20233;-86
2023/10/30 04:17:58;;;;;;;1.17;1.10;;;;;;;;;;5032637;28;20199;-85
2023/10/30 04:20:26;;;;;;;1.27;1.17;;;;;;;;;;5032577;28;20289;-85
2023/10/30 04:22:53;;;;;;;2.28;1.75;;;;;;;;;;5032389;28;20194;-86
2023/10/30 04:25:21;;;;;;;1.77;1.20;;;;;;;;;;5027989;28;20229;-86
2023/10/30 04:27:50;;;;;;;1.50;1.40;;;;;;;;;;5032521;28;20194;-86
2023/10/30 04:30:17;;;;;;;2.00;1.42;;;;;;;;;;5032179;28;20547;-86
2023/10/30 04:32:45;;;;;;;1.85;1.70;;;;;;;;;;5032926;28;20289;-85
2023/10/30 04:35:12;;;;;;;5.07;1.60;;;;;;;;;;5024009;28;20231;-84
2023/10/30 04:37:40;;;;;;;2.17;1.40;;;;;;;;;;5035696;28;20639;-85
2023/10/30 04:40:09;;;;;;;1.85;1.40;;;;;;;;;;5052606;28;20257;-86
2023/10/30 04:42:36;;;;;;;1.48;1.33;;;;;;;;;;5052602;28;20680;-85
2023/10/30 04:45:06;;;;;;;1.35;1.25;;;;;;;;;;5035601;28;20241;-87
2023/10/30 04:47:34;;;;;;;0.88;0.82;;;;;;;;;;5034174;28;20205;-86
2023/10/30 04:50:02;;;;;;;2.15;1.55;;;;;;;;;;5033845;28;20289;-86
2023/10/30 04:52:30;;;;;;;6.07;1.95;;;;;;;;;;5032851;28;20274;-87
2023/10/30 04:54:57;;;;;;;2.60;1.55;;;;;;;;;;5017870;28;20223;-87
2023/10/30 04:57:25;;;;;;;1.23;1.13;;;;;;;;;;5025431;28;20289;-87
2023/10/30 04:59:52;;;;;;;2.20;1.67;;;;;;;;;;5026013;28;20293;-87
2023/10/30 05:02:21;;;;;;;3.63;1.50;;;;;;;;;;5025145;28;20652;-87
2023/10/30 05:04:48;;;;;;;1.40;1.25;;;;;;;;;;5024229;28;20237;-88
2023/10/30 05:07:16;;;;;;;1.67;1.50;;;;;;;;;;5026397;28;20209;-86
2023/10/30 05:09:43;;;;;;;1.30;1.20;;;;;;;;;;5024267;28;20203;-87
2023/10/30 05:12:11;;;;;;;3.17;1.35;;;;;;;;;;5020437;28;20290;-86
2023/10/30 05:14:38;;;;;;;1.98;1.23;;;;;;;;;;5019522;28;20215;-86
2023/10/30 05:17:06;;;;;;;2.05;1.50;;;;;;;;;;5025524;28;20198;-87
2023/10/30 05:19:35;;;;;;;1.55;1.40;;;;;;;;;;5023139;28;20298;-86
2023/10/30 05:22:02;;;;;;;3.17;1.65;;;;;;;;;;5016193;28;20683;-87
2023/10/30 05:24:30;;;;;;;2.50;1.77;;;;;;;;;;5022773;28;20314;-86
2023/10/30 05:26:57;;;;;;;2.70;1.70;;;;;;;;;;5021347;28;20228;-86
2023/10/30 05:29:24;;;;;;;1.70;1.60;;;;;;;;;;5026705;28;20198;-87
2023/10/30 05:31:52;;;;;;;1.63;1.10;;;;;;;;;;5018671;28;20195;-87
2023/10/30 05:34:19;;;;;;;3.03;1.75;;;;;;;;;;5022787;28;20229;-87
2023/10/30 05:36:48;;;;;;;2.75;1.65;;;;;;;;;;5022881;28;20282;-86
2023/10/30 05:39:16;;;;;;;1.67;1.35;;;;;;;;;;5028206;28;20209;-86
2023/10/30 05:41:43;;;;;;;1.30;1.20;;;;;;;;;;5022851;28;20562;-87
2023/10/30 05:44:11;;;;;;;2.45;1.10;;;;;;;;;;5025234;28;20316;-86
2023/10/30 05:46:38;;;;;;;2.83;2.03;;;;;;;;;;5022170;28;20305;-87
2023/10/30 05:49:06;;;;;;;1.88;1.70;;;;;;;;;;5028585;28;20198;-86
2023/10/30 05:51:33;;;;;;;1.83;1.35;;;;;;;;;;5022326;28;20213;-86
2023/10/30 05:54:02;;;;;;;1.70;1.30;;;;;;;;;;5027813;28;20213;-86
2023/10/30 05:56:29;;;;;;;2.25;1.52;;;;;;;;;;5015094;28;20728;-86
2023/10/30 05:58:58;;;;;;;1.85;1.40;;;;;;;;;;5024980;28;20274;-86
2023/10/30 06:01:25;;;;;;;2.55;1.15;;;;;;;;;;5021695;28;20672;-87
2023/10/30 06:03:53;;;;;;;1.20;1.10;;;;;;;;;;5021872;28;20301;-87
2023/10/30 06:06:20;;;;;;;2.63;1.60;;;;;;;;;;5027094;28;20317;-88
2023/10/30 06:08:48;;;;;;;1.98;1.20;;;;;;;;;;5022856;28;20580;-87
2023/10/30 06:11:16;;;;;;;1.73;1.40;;;;;;;;;;5029416;28;20203;-86
2023/10/30 06:13:44;;;;;;;1.98;1.40;;;;;;;;;;5028253;28;20310;-87
2023/10/30 06:16:16;;;;;;;2.75;1.17;;;;;;;;;;5028127;28;20588;-87
2023/10/30 06:18:43;;;;;;;2.17;1.17;;;;;;;;;;5019234;28;20586;-87
2023/10/30 06:21:16;;;;;;;2.65;1.52;;;;;;;;;;5026406;28;20230;-87
2023/10/30 06:23:43;;;;;;;1.20;1.10;;;;;;;;;;5028016;28;20223;-86
2023/10/30 06:26:11;;;;;;;1.85;1.30;;;;;;;;;;5021577;28;20232;-86
2023/10/30 06:28:41;;;;;;;2.05;1.20;;;;;;;;;;5020932;28;20586;-87
2023/10/30 06:31:15;;;;;;;2.53;1.10;;;;;;;;;;5032012;28;20198;-87
2023/10/30 06:33:43;;;;;;;1.95;1.00;;;;;;;;;;5034940;28;20677;-87
2023/10/30 06:36:11;;;;;;;0.88;0.88;;;;;;;;;;5025016;28;20206;-86
2023/10/30 06:38:38;;;;;;;1.85;1.25;;;;;;;;;;5031326;28;20198;-88
2023/10/30 06:41:06;;;;;;;3.20;1.48;;;;;;;;;;5027892;28;20210;-87
2023/10/30 06:43:34;;;;;;;3.05;1.20;;;;;;;;;;5027896;28;20226;-86
2023/10/30 06:46:04;;;;;;;1.52;1.20;;;;;;;;;;5021424;28;20600;-87
2023/10/30 06:48:32;;;;;;;1.25;1.15;;;;;;;;;;5029398;28;20670;-86
2023/10/30 06:51:00;;;;;;;2.83;1.50;;;;;;;;;;5023283;28;20198;-87
2023/10/30 06:53:27;;;;;;;2.83;1.30;;;;;;;;;;5029887;28;20585;-87
2023/10/30 06:55:55;;;;;;;1.20;1.10;;;;;;;;;;5026780;28;20199;-86
2023/10/30 06:58:22;;;;;;;2.47;1.17;;;;;;;;;;5027449;28;20203;-86
2023/10/30 07:00:50;;;;;;;1.63;1.52;;;;;;;;;;5030656;28;20198;-86
2023/10/30 07:03:19;;;;;;;1.40;1.00;;;;;;;;;;5024853;28;20222;-86
2023/10/30 07:05:46;;;;;;;3.00;1.13;;;;;;;;;;5029185;28;20198;-87
2023/10/30 07:08:14;;;;;;;1.85;1.15;;;;;;;;;;5022707;28;20199;-86
2023/10/30 07:10:42;;;;;;;1.50;1.10;;;;;;;;;;5015643;28;20735;-85
2023/10/30 07:13:09;;;;;;;1.30;1.23;;;;;;;;;;5025843;28;20240;-86
2023/10/30 07:15:36;;;;;;;1.92;1.10;;;;;;;;;;5028181;28;20587;-84
2023/10/30 07:18:04;;;;;;;4.30;1.20;;;;;;;;;;5021199;28;20209;-86
2023/10/30 07:20:33;;;;;;;5.70;1.60;;;;;;;;;;5032496;28;20684;-86
2023/10/30 07:23:00;;;;;;;1.48;1.00;;;;;;;;;;5033795;28;20676;-87
2023/10/30 07:25:28;;;;;;;1.25;1.10;;;;;;;;;;5031429;28;20289;-86
2023/10/30 07:27:55;;;;;;;1.50;0.80;;;;;;;;;;5027918;28;20251;-86
2023/10/30 07:30:24;;;;;;;1.15;1.05;;;;;;;;;;5024735;28;20209;-87
2023/10/30 07:32:51;;;;;;;1.85;1.20;;;;;;;;;;5029686;28;20250;-87
2023/10/30 07:35:19;;;;;;;3.90;1.00;;;;;;;;;;5022323;28;20290;-86
2023/10/30 07:37:48;;;;;;;4.40;2.55;;;;;;;;;;5032039;28;20198;-87
2023/10/30 07:40:16;;;;;;;1.50;1.40;;;;;;;;;;5021198;28;20730;-87
2023/10/30 07:42:44;;;;;;;2.25;1.60;;;;;;;;;;5020326;28;20202;-86
2023/10/30 07:45:12;;;;;;;1.15;0.82;;;;;;;;;;5033664;28;20285;-87
2023/10/30 07:47:40;;;;;;;1.27;0.80;;;;;;;;;;5030693;28;20227;-86
2023/10/30 07:50:08;;;;;;;0.90;0.88;;;;;;;;;;5025901;28;20285;-86
2023/10/30 07:52:36;;;;;;;1.38;0.70;;;;;;;;;;5031081;28;20289;-87
2023/10/30 07:55:06;;;;;;;1.23;0.90;;;;;;;;;;5024854;28;20257;-86
2023/10/30 07:57:34;;;;;;;1.17;0.93;;;;;;;;;;5032214;28;20257;-86
2023/10/30 08:00:03;;;;;;;2.17;1.00;;;;;;;;;;5029823;28;20286;-86
2023/10/30 08:02:31;;;;;;;1.00;0.95;;;;;;;;;;5032319;28;20210;-86
2023/10/30 08:04:59;;;;;;;1.90;1.10;;;;;;;;;;5028581;28;20290;-86
2023/10/30 08:07:27;;;;;;;1.52;1.20;;;;;;;;;;5034108;28;20222;-86
2023/10/30 08:09:56;;;;;;;2.03;1.10;;;;;;;;;;5027104;28;20197;-87
2023/10/30 08:12:25;;;;;;;1.13;0.90;;;;;;;;;;5033656;28;20264;-87
2023/10/30 08:14:53;;;;;;;0.90;0.80;;;;;;;;;;5031416;28;20306;-88
2023/10/30 08:17:21;;;;;;;2.97;1.13;;;;;;;;;;5030260;28;20733;-87
2023/10/30 08:19:48;;;;;;;1.90;1.33;;;;;;;;;;5030102;28;20195;-86
2023/10/30 08:22:16;;;;;;;2.05;0.90;;;;;;;;;;5027160;28;20669;-87
2023/10/30 08:24:43;;;;;;;1.02;0.88;;;;;;;;;;5027693;28;20305;-86
2023/10/30 08:27:11;;;;;;;1.13;0.85;;;;;;;;;;5027669;28;20280;-86
2023/10/30 08:29:40;;;;;;;0.73;0.73;;;;;;;;;;5033271;28;20229;-86
2023/10/30 08:32:08;;;;;;;0.90;0.90;;;;;;;;;;5035407;28;20229;-87
2023/10/30 08:34:35;;;;;;;1.05;0.95;;;;;;;;;;5039960;28;20294;-88
2023/10/30 08:37:03;;;;;;;1.17;1.00;;;;;;;;;;5033925;28;20688;-87
2023/10/30 08:39:30;;;;;;;1.20;1.02;;;;;;;;;;5029295;28;20291;-88
2023/10/30 08:41:57;;;;;;;0.98;0.85;;;;;;;;;;5032131;28;20647;-88
2023/10/30 08:44:25;;;;;;;2.00;1.00;;;;;;;;;;5031885;28;20230;-87
2023/10/30 08:46:54;;;;;;;2.15;0.90;;;;;;;;;;5032223;28;20207;-87
2023/10/30 08:49:21;;;;;;;0.73;0.65;;;;;;;;;;5031677;28;20628;-87
2023/10/30 08:51:49;;;;;;;0.55;0.55;;;;;;;;;;5030006;28;20582;-87
2023/10/30 08:54:16;;;;;;;0.80;0.77;;;;;;;;;;5032304;28;20704;-87
2023/10/30 08:56:44;;;;;;;0.55;0.55;;;;;;;;;;5032286;28;20197;-87
2023/10/30 08:59:12;;;;;;;0.70;0.70;;;;;;;;;;5032596;28;20658;-86
2023/10/30 09:01:40;;;;;;;0.70;0.60;;;;;;;;;;5026541;28;20205;-87
2023/10/30 09:04:10;;;;;;;0.80;0.80;;;;;;;;;;5030575;28;20222;-87
2023/10/30 09:06:37;;;;;;;0.70;0.47;;;;;;;;;;5036464;28;20220;-86
2023/10/30 09:09:05;;;;;;;0.88;0.80;;;;;;;;;;5032691;28;20218;-87
2023/10/30 09:11:33;;;;;;;0.77;0.70;;;;;;;;;;5031393;28;20225;-86
2023/10/30 09:14:01;;;;;;;0.57;0.57;;;;;;;;;;5033665;28;20229;-86
2023/10/30 09:16:28;;;;;;;0.60;0.60;;;;;;;;;;5024438;28;20234;-86
2023/10/30 09:18:56;;;;;;;0.55;0.55;;;;;;;;;;5031691;28;20268;-87
2023/10/30 09:21:25;;;;;;;0.73;0.73;;;;;;;;;;5032001;28;20289;-85
2023/10/30 09:23:52;;;;;;;0.77;0.60;;;;;;;;;;5032051;28;20234;-87
2023/10/30 09:26:20;;;;;;;1.83;0.70;;;;;;;;;;5037340;28;20289;-85
2023/10/30 09:28:47;;;;;;;0.55;0.55;;;;;;;;;;5032917;28;20309;-86
2023/10/30 09:31:15;;;;;;;0.85;0.43;;;;;;;;;;5031522;28;20289;-87
2023/10/30 09:33:42;;;;;;;1.98;1.88;;;;;;;;;;5025764;28;20221;-87
2023/10/30 09:36:10;;;;;;;0.85;0.52;;;;;;;;;;5025094;28;20293;-85
2023/10/30 09:38:38;;;;;;;0.77;0.60;;;;;;;;;;5028166;28;20282;-84
2023/10/30 09:41:07;;;;;;;1.52;0.50;;;;;;;;;;5026969;28;20281;-86
2023/10/30 09:43:37;;;;;;;0.65;0.50;;;;;;;;;;5033636;28;20613;-87
2023/10/30 09:46:06;;;;;;;0.40;0.40;;;;;;;;;;5026481;28;20202;-87
2023/10/30 09:48:34;;;;;;;0.65;0.65;;;;;;;;;;5037623;28;20228;-86
2023/10/30 09:51:03;;;;;;;1.70;0.80;;;;;;;;;;5035604;28;20735;-87
2023/10/30 09:53:31;;;;;;;2.42;0.55;;;;;;;;;;5033339;28;20778;-89
2023/10/30 09:56:00;;;;;;;0.80;0.65;;;;;;;;;;5031056;28;20732;-88
2023/10/30 09:58:28;;;;;;;0.55;0.55;;;;;;;;;;5035787;28;20213;-89
2023/10/30 10:00:56;;;;;;;0.80;0.63;;;;;;;;;;5033163;28;20587;-89
2023/10/30 10:03:23;;;;;;;1.65;0.85;;;;;;;;;;5035559;28;20218;-90
2023/10/30 10:05:57;;;;;;;0.70;0.70;;;;;;;;;;5035649;28;20264;-90
2023/10/30 10:08:25;;;;;;;0.70;0.70;;;;;;;;;;5035476;28;20226;-89
2023/10/30 10:10:57;;;;;;;0.70;0.70;;;;;;;;;;5027973;28;20668;-90
2023/10/30 10:13:27;;;;;;;0.50;0.50;;;;;;;;;;5034643;28;20666;-89
2023/10/30 10:15:54;;;;;;;1.33;0.68;;;;;;;;;;5034652;28;20681;-90
2023/10/30 10:18:26;;;;;;;0.90;0.77;;;;;;;;;;5034986;28;20561;-89
2023/10/30 10:21:00;;;;;;;0.45;0.45;;;;;;;;;;5034130;28;20206;-89
2023/10/30 10:23:31;;;;;;;0.70;0.70;;;;;;;;;;5031708;28;20226;-89
2023/10/30 10:26:00;;;;;;;0.82;0.82;;;;;;;;;;5034644;28;20664;-89
2023/10/30 10:28:29;;;;;;;1.05;0.68;;;;;;;;;;5035114;28;20765;-89
2023/10/30 10:30:57;;;;;;;1.42;0.88;;;;;;;;;;5035215;28;20220;-88
2023/10/30 10:33:27;;;;;;;0.57;0.50;;;;;;;;;;5032564;28;20233;-88
2023/10/30 10:35:55;;;;;;;0.98;0.70;;;;;;;;;;5044678;28;20210;-90
2023/10/30 10:38:23;;;;;;;0.65;0.63;;;;;;;;;;5040113;28;20230;-89
2023/10/30 10:40:51;;;;;;;0.65;0.65;;;;;;;;;;5031571;28;20724;-89
2023/10/30 10:43:21;;;;;;;2.42;1.10;;;;;;;;;;5035220;28;20611;-89
2023/10/30 10:45:53;;;;;;;0.80;0.70;;;;;;;;;;5031527;28;20202;-89
2023/10/30 10:48:21;;;;;;;0.50;0.50;;;;;;;;;;5034395;28;20250;-89
2023/10/30 10:50:49;;;;;;;1.17;0.90;;;;;;;;;;5023779;28;20207;-90
2023/10/30 10:53:20;;;;;;;0.70;0.70;;;;;;;;;;5027837;28;20224;-89
2023/10/30 10:55:51;;;;;;;1.23;1.00;;;;;;;;;;5029774;28;20605;-89
2023/10/30 10:58:25;;;;;;;0.47;0.43;;;;;;;;;;5031208;28;20206;-90
2023/10/30 11:00:54;;;;;;;0.70;0.70;;;;;;;;;;5032116;28;20289;-89
2023/10/30 11:03:23;;;;;;;0.82;0.70;;;;;;;;;;5028722;28;20224;-89
2023/10/30 11:05:52;;;;;;;1.10;0.77;;;;;;;;;;5034446;28;20293;-90
2023/10/30 11:08:35;;;;;;;1.90;1.35;;;;;;;;;;5032187;28;20551;-90
2023/10/30 11:11:12;;;;;;;2.67;0.95;;;;;;;;;;5025184;28;20214;-90
2023/10/30 11:13:52;;;;;;;0.85;0.80;;;;;;;;;;5032050;28;20229;-89
2023/10/30 11:16:26;;;;;;;1.58;0.60;;;;;;;;;;5032291;28;20206;-90
2023/10/30 11:18:57;;;;;;;0.65;0.63;;;;;;;;;;5032064;28;20206;-89
2023/10/30 11:21:28;;;;;;;0.55;0.52;;;;;;;;;;5033893;28;20202;-89
2023/10/30 11:23:57;;;;;;;0.68;0.68;;;;;;;;;;5033866;28;20313;-90
2023/10/30 11:26:43;;;;;;;0.60;0.50;;;;;;;;;;5033370;28;20217;-89
2023/10/30 11:29:13;;;;;;;0.47;0.47;;;;;;;;;;5029550;28;20226;-89
2023/10/30 11:32:05;;;;;;;1.13;0.60;;;;;;;;;;5034184;28;20298;-90
2023/10/30 11:34:35;;;;;;;0.73;0.50;;;;;;;;;;5033928;28;20309;-90
2023/10/30 11:37:11;;;;;;;0.50;0.50;;;;;;;;;;5022259;28;20293;-89
2023/10/30 11:39:39;;;;;;;0.82;0.82;;;;;;;;;;5023420;28;20756;-90
2023/10/30 11:42:33;;;;;;;0.40;0.40;;;;;;;;;;5026196;28;20204;-90
2023/10/30 11:45:22;;;;;;;0.57;0.57;;;;;;;;;;5012526;28;20234;-90
2023/10/30 11:48:01;;;;;;;0.47;0.47;;;;;;;;;;5028477;28;20229;-90
2023/10/30 11:50:33;;;;;;;0.65;0.65;;;;;;;;;;5032192;28;20225;-90
2023/10/30 11:53:07;;;;;;;0.50;0.50;;;;;;;;;;5033381;28;20202;-89
2023/10/30 11:55:36;;;;;;;0.60;0.60;;;;;;;;;;5033619;28;20220;-90
2023/10/30 11:58:04;;;;;;;0.85;0.60;;;;;;;;;;5033873;28;20210;-90
2023/10/30 12:00:33;;;;;;;1.17;0.80;;;;;;;;;;5033349;28;20206;-90
2023/10/30 12:03:03;;;;;;;0.68;0.50;;;;;;;;;;5031867;28;20715;-91
2023/10/30 12:05:31;;;;;;;0.50;0.50;;;;;;;;;;5034829;28;20202;-90
2023/10/30 12:07:59;;;;;;;0.65;0.45;;;;;;;;;;5033019;28;20198;-90
2023/10/30 12:10:27;;;;;;;0.73;0.50;;;;;;;;;;5024510;28;20616;-90
2023/10/30 12:12:55;;;;;;;0.35;0.35;;;;;;;;;;5031216;28;20260;-90
2023/10/30 12:15:22;;;;;;;0.57;0.50;;;;;;;;;;5033216;28;20293;-90
2023/10/30 12:17:51;;;;;;;2.60;0.60;;;;;;;;;;5033084;28;20292;-90
2023/10/30 12:20:21;;;;;;;0.50;0.50;;;;;;;;;;5032815;28;20694;-90
2023/10/30 12:22:48;;;;;;;0.60;0.45;;;;;;;;;;5032940;28;20726;-89
2023/10/30 12:25:16;;;;;;;0.68;0.60;;;;;;;;;;5033254;28;20293;-90
2023/10/30 12:27:44;;;;;;;1.73;0.50;;;;;;;;;;5033034;28;20202;-89
2023/10/30 12:30:14;;;;;;;0.77;0.40;;;;;;;;;;5032836;28;20226;-90
2023/10/30 12:32:42;;;;;;;0.98;0.60;;;;;;;;;;5030204;28;20534;-90
2023/10/30 12:35:12;;;;;;;0.38;0.30;;;;;;;;;;5032802;28;20209;-91
2023/10/30 12:37:42;;;;;;;0.70;0.50;;;;;;;;;;5030763;28;20206;-89
2023/10/30 12:40:12;;;;;;;0.75;0.50;;;;;;;;;;5024250;28;20202;-89
2023/10/30 12:42:41;;;;;;;0.50;0.50;;;;;;;;;;5030878;28;20285;-90
2023/10/30 12:45:11;;;;;;;0.77;0.45;;;;;;;;;;5032619;28;20634;-90
2023/10/30 12:47:40;;;;;;;0.43;0.43;;;;;;;;;;5032375;28;20293;-90
2023/10/30 12:50:10;;;;;;;1.38;0.50;;;;;;;;;;5032380;28;20210;-90
2023/10/30 12:52:41;;;;;;;0.60;0.60;;;;;;;;;;5032426;28;20206;-90
2023/10/30 12:55:09;;;;;;;0.30;0.30;;;;;;;;;;5032348;28;20218;-90
2023/10/30 12:57:38;;;;;;;0.50;0.50;;;;;;;;;;5032344;28;20545;-90
2023/10/30 13:00:07;;;;;;;0.45;0.45;;;;;;;;;;5032424;28;20206;-90
2023/10/30 13:02:35;;;;;;;0.40;0.40;;;;;;;;;;5025234;28;20307;-90
2023/10/30 13:05:02;;;;;;;0.40;0.40;;;;;;;;;;5035718;28;20257;-90
2023/10/30 13:07:30;;;;;;;0.35;0.35;;;;;;;;;;5043438;28;20624;-89
2023/10/30 13:09:59;;;;;;;0.60;0.60;;;;;;;;;;5028875;28;20234;-89
2023/10/30 13:12:26;;;;;;;0.47;0.43;;;;;;;;;;5045404;28;20230;-90
2023/10/30 13:14:54;;;;;;;0.57;0.57;;;;;;;;;;5051731;28;20253;-90
2023/10/30 13:17:22;;;;;;;0.30;0.30;;;;;;;;;;5053404;28;20201;-90
2023/10/30 13:19:49;;;;;;;0.70;0.50;;;;;;;;;;5050345;28;20213;-90
2023/10/30 13:22:17;;;;;;;0.30;0.30;;;;;;;;;;5056749;28;20186;-90
2023/10/30 13:24:44;;;;;;;0.65;0.65;;;;;;;;;;5057078;28;20260;-90
2023/10/30 13:27:13;;;;;;;0.57;0.45;;;;;;;;;;5056691;28;20192;-88
2023/10/30 13:29:41;;;;;;;0.60;0.60;;;;;;;;;;5056463;28;20190;-89
2023/10/30 13:32:08;;;;;;;0.68;0.68;;;;;;;;;;5045841;28;20652;-89
2023/10/30 13:34:36;;;;;;;0.65;0.63;;;;;;;;;;5049160;28;20270;-89
2023/10/30 13:37:03;;;;;;;0.30;0.30;;;;;;;;;;5030940;28;20206;-89
2023/10/30 13:39:31;;;;;;;2.17;0.60;;;;;;;;;;5043879;28;20206;-89
2023/10/30 13:41:58;;;;;;;0.30;0.30;;;;;;;;;;5054881;28;20228;-90
2023/10/30 13:44:27;;;;;;;0.45;0.45;;;;;;;;;;5054859;28;20214;-90
2023/10/30 13:46:54;;;;;;;0.60;0.60;;;;;;;;;;5056749;28;20186;-88
2023/10/30 13:49:22;;;;;;;0.40;0.40;;;;;;;;;;5056081;28;20224;-90
2023/10/30 13:51:50;;;;;;;0.40;0.40;;;;;;;;;;5050083;28;20226;-90
2023/10/30 13:54:19;;;;;;;0.50;0.50;;;;;;;;;;5054793;28;20313;-91
2023/10/30 13:56:46;;;;;;;0.40;0.40;;;;;;;;;;5054194;28;20205;-90
2023/10/30 13:59:14;;;;;;;0.40;0.40;;;;;;;;;;5055275;28;20226;-89
2023/10/30 14:01:42;;;;;;;0.50;0.50;;;;;;;;;;5056320;28;20214;-90
2023/10/30 14:04:10;;;;;;;0.55;0.55;;;;;;;;;;5054952;28;20225;-90
2023/10/30 14:06:37;;;;;;;1.50;1.08;;;;;;;;;;5056626;28;20193;-90
2023/10/30 14:09:05;;;;;;;0.50;0.50;;;;;;;;;;5052433;28;20213;-90
2023/10/30 14:11:32;;;;;;;0.57;0.57;;;;;;;;;;5052272;28;20245;-90
2023/10/30 14:14:00;;;;;;;0.82;0.50;;;;;;;;;;5056055;28;20233;-89
2023/10/30 14:16:28;;;;;;;0.73;0.70;;;;;;;;;;5049567;28;20338;-89
2023/10/30 14:18:56;;;;;;;0.40;0.40;;;;;;;;;;5055862;28;20191;-89
2023/10/30 14:21:26;;;;;;;0.40;0.40;;;;;;;;;;5047149;28;20206;-90
2023/10/30 14:23:54;;;;;;;0.30;0.30;;;;;;;;;;5040057;28;20215;-90
2023/10/30 14:26:21;;;;;;;0.45;0.45;;;;;;;;;;5037934;28;20202;-89
2023/10/30 14:28:49;;;;;;;0.45;0.45;;;;;;;;;;5035483;28;20297;-89
2023/10/30 14:31:16;;;;;;;0.70;0.70;;;;;;;;;;5035198;28;20233;-90
2023/10/30 14:33:45;;;;;;;0.60;0.40;;;;;;;;;;5036535;28;20314;-89
2023/10/30 14:36:14;;;;;;;0.60;0.60;;;;;;;;;;5030047;28;20206;-90
2023/10/30 14:38:42;;;;;;;0.77;0.43;;;;;;;;;;5033897;28;20289;-89
2023/10/30 14:41:09;;;;;;;0.68;0.60;;;;;;;;;;5030040;28;20285;-90
2023/10/30 14:43:37;;;;;;;0.60;0.60;;;;;;;;;;5034907;28;20234;-90
2023/10/30 14:46:04;;;;;;;0.40;0.40;;;;;;;;;;5033810;28;20590;-90
2023/10/30 14:48:32;;;;;;;0.65;0.65;;;;;;;;;;5035225;28;20201;-89
2023/10/30 14:51:00;;;;;;;1.00;0.70;;;;;;;;;;5047550;28;20214;-89